Bonus, Illinois
Current Conditions -  °F | °C
As of 6:21 AM on Tuesday 27 Jan 2015 (Local Time) from KRFD Reporting Station
Haze Haze  
Wind Chill: 16°   Ceiling: 1100
Heat Index: 26°   Visibility: 2mi
Dew Point: 22°   Wind: 12mph
Humidity: 84%   Direction: 20°NNE
Pressure: 30.07"   Gusts: NA
Location:  42.267°N, 88.7326°W
Report Text: KRFD 271221Z 02010KT 2SM BR BKN011 OVC048 M03/M06 A3007 RMK AO2 SFC VIS 3 T10331056
Loading
Personal Weather Stations






























Interactive Weather Map New forecast layout! Learn more

10-Day Weather Forecast

Advertisements
Track Severe Weather on mobile